Manitou, Oklahoma
Current Conditions -  °F | °C
As of 4:53 AM on Saturday 25 Oct 2014 (Local Time) from KFDR Reporting Station
Clear Clear  
Wind Chill: 59°   Ceiling: Unl
Heat Index: 59°   Visibility: 10mi
Dew Point: 54°   Wind: 0mph
Humidity: 83%   Direction: NA
Pressure: 30.04"   Gusts: NA
Location:  34.51°N, 98.98°W
Report Text: KFDR 250953Z AUTO 00000KT 10SM CLR 15/12 A3004 RMK AO2 SLP158 T01500122 $
Loading
Personal Weather Stations






























Interactive Weather Map
Tropical Storm Tracking
New forecast layout! Learn more

10-Day Weather Forecast

Advertisements
Track Severe Weather on mobile